Terminal Aerodrome Forecast
Issued by NWS Wilmington, NC

Home | Current Version | Previous Version | Text Only | Print | Product List | Glossary On
Versions: 1 2 3 4 5 6 7 8 9 10 11 12 13 14 15 16 17 18 19 20 21 22 23 24 25 26 27 28 29 30 31 32 33 34
000
FTUS42 KILM 271200 AAA
TAFILM
TAF AMD
KILM 271218Z 2712/2812 34003KT 3SM BR BKN200
      TEMPO 2712/2713 2SM BR
     FM271330 01008KT P6SM BKN250
     FM271800 36010KT P6SM SCT040
     FM280200 02008KT P6SM SCT025 SCT200=

USA.gov is the U.S. government's official web portal to all federal, state and local government web resources and services.